createdAt,value
2023-07-14T00:00:37.434Z,68.60
2023-07-14T00:03:04.632Z,68.90
2023-07-14T00:05:33.768Z,68.90
2023-07-14T00:08:00.934Z,69.20
2023-07-14T00:10:34.561Z,69.40
2023-07-14T00:13:05.607Z,69.90
2023-07-14T00:15:33.303Z,70.00
2023-07-14T00:18:12.777Z,70.20
2023-07-14T00:20:39.804Z,70.40
2023-07-14T00:23:12.946Z,70.50
2023-07-14T00:25:40.120Z,70.80
2023-07-14T00:28:15.057Z,71.10
2023-07-14T00:30:42.146Z,71.20
2023-07-14T00:33:13.928Z,71.30
2023-07-14T00:35:41.293Z,71.70
2023-07-14T00:38:08.540Z,71.90
2023-07-14T00:40:37.318Z,71.80
2023-07-14T00:43:05.373Z,72.10
2023-07-14T00:45:33.503Z,71.90
2023-07-14T00:48:05.350Z,72.00
2023-07-14T00:50:38.819Z,71.80
2023-07-14T00:53:19.767Z,71.90
2023-07-14T00:55:49.296Z,72.20
2023-07-14T00:58:26.835Z,72.40
2023-07-14T01:01:03.512Z,72.40
2023-07-14T01:03:31.374Z,72.40
2023-07-14T01:06:00.100Z,72.60
2023-07-14T01:08:27.626Z,72.70
2023-07-14T01:10:54.964Z,73.90
2023-07-14T01:13:23.043Z,73.40
2023-07-14T01:15:52.446Z,74.30
2023-07-14T01:18:19.685Z,73.50
2023-07-14T01:20:46.940Z,73.80
2023-07-14T01:23:23.188Z,73.60
2023-07-14T01:26:09.394Z,73.80
2023-07-14T01:28:36.346Z,73.60
2023-07-14T01:31:03.336Z,73.70
2023-07-14T01:33:30.193Z,73.40
2023-07-14T01:36:00.191Z,73.20
2023-07-14T01:38:27.556Z,73.10
2023-07-14T01:40:54.597Z,73.10
2023-07-14T01:43:22.505Z,73.20
2023-07-14T01:45:55.531Z,73.20
2023-07-14T01:48:25.778Z,73.30
2023-07-14T01:50:54.473Z,73.40
2023-07-14T01:53:29.833Z,73.20
2023-07-14T01:55:58.543Z,73.20
2023-07-14T01:58:28.666Z,73.20
2023-07-14T02:00:56.670Z,73.20
2023-07-14T02:03:45.020Z,73.30
2023-07-14T02:06:14.369Z,73.20
2023-07-14T02:08:46.085Z,73.30
2023-07-14T02:11:16.859Z,73.30
2023-07-14T02:13:43.795Z,73.40
2023-07-14T02:16:15.511Z,73.30
2023-07-14T02:18:43.482Z,73.30
2023-07-14T02:21:12.129Z,73.30
2023-07-14T02:23:40.402Z,73.40
2023-07-14T02:26:19.648Z,73.40
2023-07-14T02:28:46.535Z,73.50
2023-07-14T02:31:33.797Z,73.50
2023-07-14T02:34:00.984Z,73.50
2023-07-14T02:36:33.937Z,73.60
2023-07-14T02:39:02.442Z,73.50
2023-07-14T02:41:30.660Z,73.50
2023-07-14T02:44:02.507Z,73.50
2023-07-14T02:46:34.731Z,73.70
2023-07-14T02:49:01.782Z,73.80
2023-07-14T02:51:28.625Z,73.90
2023-07-14T02:53:55.489Z,74.00
2023-07-14T02:56:22.773Z,74.10
2023-07-14T02:58:51.264Z,74.20
2023-07-14T03:01:19.141Z,74.30
2023-07-14T03:03:47.410Z,74.40
2023-07-14T03:06:15.072Z,74.50
2023-07-14T03:08:42.070Z,74.50
2023-07-14T03:11:09.240Z,74.60
2023-07-14T03:13:39.140Z,74.60
2023-07-14T03:16:06.347Z,74.60
2023-07-14T03:18:33.436Z,74.50
2023-07-14T03:21:02.059Z,74.40
2023-07-14T03:23:29.235Z,74.40
2023-07-14T03:26:03.748Z,74.30
2023-07-14T03:28:30.885Z,74.20
2023-07-14T03:30:57.723Z,74.10
2023-07-14T03:33:24.905Z,74.00
2023-07-14T03:35:52.032Z,73.90
2023-07-14T03:38:18.947Z,73.80
2023-07-14T03:40:45.844Z,73.80
2023-07-14T03:43:12.754Z,73.70
2023-07-14T03:45:39.796Z,73.70
2023-07-14T03:48:06.901Z,73.60
2023-07-14T03:50:34.957Z,73.60
2023-07-14T03:53:02.173Z,73.60
2023-07-14T03:55:29.892Z,73.50
2023-07-14T03:58:03.695Z,73.60
2023-07-14T04:00:32.894Z,73.60
2023-07-14T04:03:00.133Z,73.60
2023-07-14T04:05:27.672Z,73.50
2023-07-14T04:07:58.167Z,73.40
2023-07-14T04:10:25.104Z,73.20
2023-07-14T04:12:52.094Z,73.00
2023-07-14T04:15:20.754Z,73.00
2023-07-14T04:17:47.682Z,73.70
2023-07-14T04:20:14.564Z,72.80
2023-07-14T04:22:42.858Z,72.70
2023-07-14T04:25:10.514Z,72.60
2023-07-14T04:27:38.702Z,72.30
2023-07-14T04:30:06.072Z,72.20
2023-07-14T04:32:32.939Z,72.00
2023-07-14T04:34:59.848Z,71.90
2023-07-14T04:37:26.823Z,71.80
2023-07-14T04:39:53.696Z,71.70
2023-07-14T04:42:20.573Z,72.50
2023-07-14T04:44:47.414Z,71.40
2023-07-14T04:47:14.313Z,71.10
2023-07-14T04:49:41.365Z,70.50
2023-07-14T04:52:08.284Z,70.20
2023-07-14T04:54:36.431Z,69.90
2023-07-14T04:57:03.451Z,69.50
2023-07-14T04:59:30.341Z,69.20
2023-07-14T05:01:58.105Z,68.90
2023-07-14T05:04:27.698Z,68.60
2023-07-14T05:06:54.562Z,68.20
2023-07-14T05:09:21.957Z,68.00
2023-07-14T05:11:48.926Z,68.20
2023-07-14T05:14:15.820Z,68.00
2023-07-14T05:16:42.767Z,67.90
2023-07-14T05:19:09.663Z,67.70
2023-07-14T05:21:36.557Z,67.70
2023-07-14T05:24:05.252Z,67.80
2023-07-14T05:26:32.297Z,67.90
2023-07-14T05:28:59.160Z,67.90
2023-07-14T05:31:26.075Z,68.00
2023-07-14T05:33:52.905Z,68.10
2023-07-14T05:36:19.749Z,66.70
2023-07-14T05:38:46.657Z,65.50
2023-07-14T05:41:13.508Z,64.90
2023-07-14T05:43:40.421Z,64.90
2023-07-14T05:46:07.272Z,65.00
2023-07-14T05:48:34.156Z,64.80
2023-07-14T05:51:01.741Z,62.80
2023-07-14T05:53:28.635Z,61.40
2023-07-14T05:55:57.573Z,61.00
2023-07-14T05:58:24.447Z,60.50
2023-07-14T06:00:53.778Z,59.90
2023-07-14T06:03:20.730Z,59.20
2023-07-14T06:05:48.680Z,58.70
2023-07-14T06:08:16.120Z,58.70
2023-07-14T06:10:43.015Z,58.50
2023-07-14T06:13:09.920Z,58.00
2023-07-14T06:15:38.132Z,57.00
2023-07-14T06:18:05.309Z,55.80
2023-07-14T06:20:32.459Z,54.10
2023-07-14T06:22:59.642Z,53.70
2023-07-14T06:25:26.541Z,53.30
2023-07-14T06:27:53.436Z,52.40
2023-07-14T06:30:20.357Z,51.80
2023-07-14T06:32:48.940Z,50.80
2023-07-14T06:35:16.159Z,50.40
2023-07-14T06:37:43.050Z,49.90
2023-07-14T06:40:10.391Z,49.20
2023-07-14T06:42:37.947Z,48.30
2023-07-14T06:45:05.154Z,47.60
2023-07-14T06:47:33.668Z,46.70
2023-07-14T06:50:01.129Z,46.50
2023-07-14T06:52:28.433Z,45.90
2023-07-14T06:54:55.409Z,45.30
2023-07-14T06:57:22.289Z,44.70
2023-07-14T06:59:49.226Z,44.40
2023-07-14T07:02:16.376Z,44.00
2023-07-14T07:04:43.604Z,42.20
2023-07-14T07:07:10.706Z,41.80
2023-07-14T07:09:37.648Z,40.80
2023-07-14T07:12:06.171Z,41.60
2023-07-14T07:14:33.180Z,39.80
2023-07-14T07:17:00.221Z,39.50
2023-07-14T07:19:27.242Z,39.10
2023-07-14T07:21:55.297Z,39.90
2023-07-14T07:24:22.274Z,39.80
2023-07-14T07:26:49.192Z,39.60
2023-07-14T07:29:16.386Z,40.10
2023-07-14T07:31:43.284Z,40.00
2023-07-14T07:34:10.131Z,39.20
2023-07-14T07:36:37.013Z,39.70
2023-07-14T07:39:03.984Z,38.00
2023-07-14T07:41:31.116Z,37.60
2023-07-14T07:43:57.973Z,37.70
2023-07-14T07:46:27.131Z,35.60
2023-07-14T07:48:54.065Z,35.70
2023-07-14T07:51:21.482Z,34.90
2023-07-14T07:53:48.470Z,34.30
2023-07-14T07:56:16.087Z,33.80
2023-07-14T07:58:44.047Z,34.00
2023-07-14T08:01:14.824Z,33.00
2023-07-14T08:03:42.103Z,32.70
2023-07-14T08:06:09.052Z,33.70
2023-07-14T08:08:35.899Z,35.70
2023-07-14T08:11:03.602Z,36.50
2023-07-14T08:13:31.028Z,36.70
2023-07-14T08:15:58.838Z,38.00
2023-07-14T08:18:26.310Z,39.10
2023-07-14T08:20:53.290Z,39.90
2023-07-14T08:23:21.326Z,39.60
2023-07-14T08:26:01.733Z,38.90
2023-07-14T08:28:29.287Z,39.10
2023-07-14T08:30:58.738Z,39.20
2023-07-14T08:33:26.676Z,39.30
2023-07-14T08:35:54.150Z,39.70
2023-07-14T08:38:21.635Z,38.80
2023-07-14T08:40:50.333Z,38.60
2023-07-14T08:43:31.819Z,38.60
2023-07-14T08:45:58.862Z,37.00
2023-07-14T08:48:29.648Z,36.60
2023-07-14T08:50:58.722Z,35.40
2023-07-14T08:53:31.147Z,34.50
2023-07-14T08:56:05.208Z,33.20
2023-07-14T08:58:36.588Z,34.00
2023-07-14T09:01:23.007Z,34.20
2023-07-14T09:03:53.332Z,33.20
2023-07-14T09:06:31.942Z,33.20
2023-07-14T09:08:59.247Z,33.40
2023-07-14T09:11:36.291Z,34.00
2023-07-14T09:14:29.539Z,35.10
2023-07-14T09:17:16.865Z,35.50
2023-07-14T09:19:43.725Z,36.50
2023-07-14T09:22:40.145Z,36.10
2023-07-14T09:25:07.086Z,36.20
2023-07-14T09:27:34.029Z,36.80
2023-07-14T09:30:01.225Z,37.30
2023-07-14T09:32:28.215Z,37.00
2023-07-14T09:34:59.367Z,37.90
2023-07-14T09:37:28.921Z,38.40
2023-07-14T09:40:04.552Z,38.40
2023-07-14T09:42:36.716Z,38.20
2023-07-14T09:45:25.023Z,36.50
2023-07-14T09:47:59.675Z,35.50
2023-07-14T09:50:27.106Z,37.00
2023-07-14T09:52:56.391Z,36.00
2023-07-14T09:55:23.805Z,36.10
2023-07-14T09:58:10.005Z,36.40
2023-07-14T10:00:41.603Z,36.70
2023-07-14T10:03:22.871Z,36.80
2023-07-14T10:05:59.452Z,37.30
2023-07-14T10:08:45.892Z,37.20
2023-07-14T10:11:16.066Z,37.30
2023-07-14T10:13:45.415Z,38.30
2023-07-14T10:16:16.483Z,38.60
2023-07-14T10:18:55.442Z,38.60
2023-07-14T10:21:30.348Z,38.80
2023-07-14T10:23:58.321Z,39.00
2023-07-14T10:26:27.718Z,39.10
2023-07-14T10:28:56.552Z,39.30
2023-07-14T10:31:23.529Z,39.30
2023-07-14T10:34:09.620Z,39.70
2023-07-14T10:36:38.931Z,39.90
2023-07-14T10:39:14.719Z,38.60
2023-07-14T10:41:44.065Z,39.30
2023-07-14T10:44:14.965Z,38.80
2023-07-14T10:46:44.527Z,38.50
2023-07-14T10:49:17.410Z,38.40
2023-07-14T10:51:47.210Z,38.90
2023-07-14T10:54:27.306Z,38.50
2023-07-14T10:57:01.402Z,39.00
2023-07-14T10:59:31.023Z,38.70
2023-07-14T11:02:03.587Z,38.20
2023-07-14T11:04:35.571Z,37.20
2023-07-14T11:07:04.107Z,37.00
2023-07-14T11:09:32.034Z,37.30
2023-07-14T11:12:01.851Z,37.80
2023-07-14T11:14:28.678Z,37.10
2023-07-14T11:16:59.294Z,36.30
2023-07-14T11:20:00.224Z,36.50
2023-07-14T11:22:27.053Z,36.90
2023-07-14T11:24:59.854Z,37.20
2023-07-14T11:27:29.473Z,37.30
2023-07-14T11:30:22.702Z,35.10
2023-07-14T11:32:52.404Z,35.00
2023-07-14T11:35:19.239Z,35.00
2023-07-14T11:37:46.135Z,34.90
2023-07-14T11:40:21.623Z,34.20
2023-07-14T11:42:54.034Z,33.50
2023-07-14T11:45:23.346Z,34.20
2023-07-14T11:47:50.721Z,34.20
2023-07-14T11:50:38.179Z,34.60
2023-07-14T11:53:08.646Z,34.70
2023-07-14T11:55:37.969Z,34.00
2023-07-14T11:58:10.793Z,33.50
2023-07-14T12:00:46.320Z,34.20
2023-07-14T12:03:34.291Z,35.10
2023-07-14T12:06:21.115Z,35.80
2023-07-14T12:09:12.098Z,36.50
2023-07-14T12:11:41.981Z,36.20
2023-07-14T12:14:29.464Z,37.00
2023-07-14T12:16:56.783Z,36.60
2023-07-14T12:19:33.995Z,37.20
2023-07-14T12:22:03.939Z,37.60
2023-07-14T12:24:32.639Z,37.70
2023-07-14T12:26:59.470Z,38.40
2023-07-14T12:29:26.286Z,37.80
2023-07-14T12:31:54.930Z,37.60
2023-07-14T12:34:24.435Z,38.00
2023-07-14T12:36:51.593Z,37.70
2023-07-14T12:39:18.442Z,37.50
2023-07-14T12:41:47.671Z,37.70
2023-07-14T12:44:34.697Z,37.30
2023-07-14T12:47:01.696Z,37.20
2023-07-14T12:49:34.509Z,37.70
2023-07-14T12:52:06.056Z,37.90
2023-07-14T12:54:32.893Z,37.60
2023-07-14T12:57:01.446Z,37.60
2023-07-14T12:59:30.562Z,37.60
2023-07-14T13:01:57.597Z,37.90
2023-07-14T13:04:25.007Z,37.90
2023-07-14T13:06:56.275Z,38.40
2023-07-14T13:09:25.983Z,38.30
2023-07-14T13:11:53.139Z,38.60
2023-07-14T13:14:21.413Z,39.10
2023-07-14T13:16:48.365Z,39.90
2023-07-14T13:19:35.853Z,40.20
2023-07-14T13:22:03.469Z,40.10
2023-07-14T13:24:32.126Z,40.40
2023-07-14T13:27:00.193Z,40.80
2023-07-14T13:29:28.466Z,40.80
2023-07-14T13:31:57.836Z,40.70
2023-07-14T13:34:26.147Z,41.00
2023-07-14T13:36:54.040Z,41.10
2023-07-14T13:39:23.919Z,40.90
2023-07-14T13:41:53.515Z,41.00
2023-07-14T13:44:31.336Z,41.00
2023-07-14T13:47:03.515Z,40.80
2023-07-14T13:49:30.548Z,41.10
2023-07-14T13:51:57.450Z,40.70
2023-07-14T13:54:24.282Z,41.10
2023-07-14T13:56:51.145Z,41.10
2023-07-14T13:59:19.508Z,41.20
2023-07-14T14:01:47.470Z,41.10
2023-07-14T14:04:15.144Z,41.00
2023-07-14T14:06:43.137Z,40.90
2023-07-14T14:09:21.109Z,41.00
2023-07-14T14:11:51.586Z,41.20
2023-07-14T14:14:18.897Z,41.50
2023-07-14T14:16:48.169Z,41.40
2023-07-14T14:19:19.750Z,41.10
2023-07-14T14:21:48.353Z,41.50
2023-07-14T14:24:15.198Z,41.20
2023-07-14T14:26:42.048Z,41.20
2023-07-14T14:29:08.879Z,41.20
2023-07-14T14:31:35.803Z,41.40
2023-07-14T14:34:02.847Z,41.40
2023-07-14T14:36:29.705Z,41.50
2023-07-14T14:38:56.582Z,41.20
2023-07-14T14:41:28.462Z,41.30
2023-07-14T14:43:56.157Z,41.20
2023-07-14T14:46:23.632Z,41.50
2023-07-14T14:48:50.603Z,41.40
2023-07-14T14:51:17.480Z,41.60
2023-07-14T14:53:44.371Z,41.80
2023-07-14T14:56:15.880Z,41.70
2023-07-14T14:58:42.841Z,41.90
2023-07-14T15:01:18.335Z,42.10
2023-07-14T15:03:46.120Z,42.10
2023-07-14T15:06:13.592Z,42.10
2023-07-14T15:08:40.593Z,42.40
2023-07-14T15:11:10.625Z,42.50
2023-07-14T15:13:37.463Z,42.40
2023-07-14T15:16:04.610Z,42.40
2023-07-14T15:18:31.566Z,42.60
2023-07-14T15:21:00.166Z,42.70
2023-07-14T15:23:27.329Z,42.10
2023-07-14T15:25:55.446Z,42.30
2023-07-14T15:28:24.423Z,42.40
2023-07-14T15:30:51.241Z,42.60
2023-07-14T15:33:18.650Z,42.80
2023-07-14T15:35:57.323Z,42.20
2023-07-14T15:38:25.194Z,42.10
2023-07-14T15:40:52.572Z,42.30
2023-07-14T15:43:21.022Z,42.50
2023-07-14T15:45:51.612Z,42.20
2023-07-14T15:48:39.320Z,42.20
2023-07-14T15:51:19.108Z,42.40
2023-07-14T15:53:46.194Z,42.50
2023-07-14T15:56:15.853Z,42.30
2023-07-14T15:58:42.912Z,42.20
2023-07-14T16:01:26.497Z,42.30
2023-07-14T16:03:56.321Z,42.20
2023-07-14T16:06:24.091Z,42.20
2023-07-14T16:08:51.727Z,42.50
2023-07-14T16:11:18.719Z,42.70
2023-07-14T16:13:46.435Z,42.50
2023-07-14T16:16:13.748Z,42.70
2023-07-14T16:18:40.809Z,42.70
2023-07-14T16:21:09.099Z,42.90
2023-07-14T16:23:36.033Z,43.00
2023-07-14T16:26:02.877Z,43.30
2023-07-14T16:28:29.668Z,44.00
2023-07-14T16:30:56.577Z,44.10
2023-07-14T16:33:23.397Z,44.10
2023-07-14T16:35:51.576Z,44.20
2023-07-14T16:38:20.128Z,44.10
2023-07-14T16:40:47.450Z,44.10
2023-07-14T16:43:14.728Z,44.00
2023-07-14T16:45:48.522Z,44.30
2023-07-14T16:48:15.471Z,44.80
2023-07-14T16:50:42.332Z,44.80
2023-07-14T16:53:13.721Z,44.80
2023-07-14T16:55:42.409Z,44.80
2023-07-14T16:58:15.822Z,44.50
2023-07-14T17:00:44.569Z,44.60
2023-07-14T17:03:14.276Z,44.80
2023-07-14T17:05:41.099Z,45.10
2023-07-14T17:08:18.432Z,45.40
2023-07-14T17:10:45.344Z,45.40
2023-07-14T17:13:25.434Z,45.80
2023-07-14T17:15:53.793Z,46.30
2023-07-14T17:18:21.725Z,46.40
2023-07-14T17:20:49.658Z,46.40
2023-07-14T17:23:24.210Z,46.50
2023-07-14T17:25:51.899Z,46.70
2023-07-14T17:28:20.132Z,46.80
2023-07-14T17:30:54.704Z,46.80
2023-07-14T17:33:22.951Z,46.90
2023-07-14T17:35:54.038Z,47.30
2023-07-14T17:38:21.422Z,47.20
2023-07-14T17:40:48.300Z,47.50
2023-07-14T17:43:22.324Z,47.70
2023-07-14T17:45:49.602Z,48.00
2023-07-14T17:48:16.913Z,48.10
2023-07-14T17:50:46.423Z,48.30
2023-07-14T17:53:16.417Z,48.60
2023-07-14T17:55:43.487Z,48.90
2023-07-14T17:58:11.670Z,49.10
2023-07-14T18:00:38.724Z,49.30
2023-07-14T18:03:05.852Z,49.50
2023-07-14T18:05:32.713Z,49.90
2023-07-14T18:08:00.918Z,50.10
2023-07-14T18:10:28.815Z,51.00
2023-07-14T18:12:57.060Z,51.20
2023-07-14T18:15:27.266Z,51.30
2023-07-14T18:17:58.070Z,51.40
2023-07-14T18:20:27.631Z,51.60
2023-07-14T18:22:55.902Z,51.80
2023-07-14T18:25:23.718Z,52.10
2023-07-14T18:27:52.014Z,52.50
2023-07-14T18:30:22.992Z,52.80
2023-07-14T18:32:49.998Z,53.00
2023-07-14T18:35:23.068Z,53.30
2023-07-14T18:37:50.068Z,53.70
2023-07-14T18:40:20.567Z,53.90
2023-07-14T18:42:47.549Z,54.30
2023-07-14T18:45:24.598Z,54.70
2023-07-14T18:47:51.962Z,55.20
2023-07-14T18:50:19.569Z,55.50
2023-07-14T18:52:46.901Z,55.80
2023-07-14T18:55:17.914Z,56.10
2023-07-14T18:57:45.141Z,56.20
2023-07-14T19:00:18.042Z,56.40
2023-07-14T19:02:44.959Z,56.50
2023-07-14T19:05:13.650Z,56.90
2023-07-14T19:07:45.078Z,57.10
2023-07-14T19:10:13.396Z,57.30
2023-07-14T19:12:41.088Z,57.60
2023-07-14T19:15:19.486Z,57.80
2023-07-14T19:17:47.817Z,57.90
2023-07-14T19:20:16.338Z,58.10
2023-07-14T19:22:46.968Z,58.20
2023-07-14T19:25:20.842Z,58.50
2023-07-14T19:27:49.024Z,58.70
2023-07-14T19:30:16.552Z,58.80
2023-07-14T19:32:44.312Z,59.20
2023-07-14T19:35:17.966Z,59.30
2023-07-14T19:37:47.820Z,59.70
2023-07-14T19:40:18.589Z,59.90
2023-07-14T19:42:46.609Z,59.80
2023-07-14T19:45:17.251Z,60.10
2023-07-14T19:47:46.904Z,60.60
2023-07-14T19:50:17.880Z,60.60
2023-07-14T19:52:45.645Z,60.70
2023-07-14T19:55:22.744Z,60.70
2023-07-14T19:57:55.589Z,60.80
2023-07-14T20:00:23.731Z,62.00
2023-07-14T20:02:51.004Z,61.10
2023-07-14T20:05:20.922Z,61.40
2023-07-14T20:07:51.482Z,61.50
2023-07-14T20:10:23.279Z,62.00
2023-07-14T20:12:52.465Z,61.90
2023-07-14T20:15:22.863Z,61.90
2023-07-14T20:17:51.058Z,61.80
2023-07-14T20:20:18.186Z,62.00
2023-07-14T20:22:46.871Z,61.90
2023-07-14T20:25:14.230Z,62.00
2023-07-14T20:27:41.424Z,61.90
2023-07-14T20:30:20.186Z,62.10
2023-07-14T20:32:47.876Z,62.30
2023-07-14T20:35:15.672Z,62.30
2023-07-14T20:37:42.507Z,62.50
2023-07-14T20:40:12.014Z,62.60
2023-07-14T20:42:38.981Z,62.60
2023-07-14T20:45:16.297Z,63.70
2023-07-14T20:47:43.531Z,63.10
2023-07-14T20:50:15.087Z,64.10
2023-07-14T20:52:51.027Z,63.30
2023-07-14T20:55:20.868Z,63.30
2023-07-14T20:57:47.714Z,63.60
2023-07-14T21:00:15.163Z,63.70
2023-07-14T21:02:42.039Z,63.60
2023-07-14T21:05:09.668Z,63.60
2023-07-14T21:07:36.668Z,63.80
2023-07-14T21:10:03.767Z,63.80
2023-07-14T21:12:30.592Z,63.70
2023-07-14T21:14:57.503Z,63.90
2023-07-14T21:17:24.856Z,64.30
2023-07-14T21:19:52.060Z,64.20
2023-07-14T21:22:20.017Z,64.30
2023-07-14T21:24:47.237Z,64.30
2023-07-14T21:27:15.477Z,64.10
2023-07-14T21:29:42.490Z,64.40
2023-07-14T21:32:21.609Z,64.40
2023-07-14T21:34:48.913Z,64.60
2023-07-14T21:37:16.557Z,64.60
2023-07-14T21:39:43.429Z,64.60
2023-07-14T21:42:14.389Z,64.70
2023-07-14T21:44:41.410Z,64.70
2023-07-14T21:47:10.607Z,64.70
2023-07-14T21:49:37.540Z,64.90
2023-07-14T21:52:04.986Z,64.80
2023-07-14T21:54:32.140Z,65.00
2023-07-14T21:56:59.219Z,64.90
2023-07-14T21:59:26.802Z,64.90
2023-07-14T22:01:54.090Z,64.90
2023-07-14T22:04:22.976Z,65.00
2023-07-14T22:06:50.231Z,65.10
2023-07-14T22:09:18.744Z,65.10
2023-07-14T22:11:46.726Z,65.10
2023-07-14T22:14:14.415Z,65.10
2023-07-14T22:16:41.319Z,65.10
2023-07-14T22:19:09.628Z,65.10
2023-07-14T22:21:36.471Z,65.10
2023-07-14T22:24:03.375Z,65.20
2023-07-14T22:26:30.278Z,65.20
2023-07-14T22:28:57.097Z,65.10
2023-07-14T22:31:29.016Z,65.10
2023-07-14T22:33:57.918Z,65.10
2023-07-14T22:36:24.898Z,65.30
2023-07-14T22:38:52.222Z,65.50
2023-07-14T22:41:22.127Z,65.40
2023-07-14T22:43:50.725Z,65.40
2023-07-14T22:46:18.095Z,65.50
2023-07-14T22:48:46.698Z,65.40
2023-07-14T22:51:16.256Z,65.50
2023-07-14T22:53:43.113Z,65.50
2023-07-14T22:56:11.922Z,65.60
2023-07-14T22:58:39.130Z,65.70
2023-07-14T23:01:10.316Z,65.90
2023-07-14T23:03:37.214Z,66.00
2023-07-14T23:06:07.729Z,66.00
2023-07-14T23:08:34.936Z,66.10
2023-07-14T23:11:03.057Z,66.10
2023-07-14T23:13:31.262Z,66.40
2023-07-14T23:15:58.684Z,66.40
2023-07-14T23:18:26.638Z,66.30
2023-07-14T23:20:56.469Z,66.40
2023-07-14T23:23:23.600Z,66.50
2023-07-14T23:25:51.695Z,66.50
2023-07-14T23:28:18.825Z,66.50
2023-07-14T23:31:05.930Z,66.50
2023-07-14T23:33:32.770Z,66.60
2023-07-14T23:36:00.550Z,66.80
2023-07-14T23:38:28.644Z,66.80
2023-07-14T23:40:56.447Z,67.00
2023-07-14T23:43:23.257Z,67.00
2023-07-14T23:45:50.420Z,67.10
2023-07-14T23:48:17.900Z,67.10
2023-07-14T23:50:46.343Z,67.20
2023-07-14T23:53:33.970Z,67.10
2023-07-14T23:56:01.425Z,67.30
2023-07-14T23:58:30.489Z,67.30
